sensor_id;sensor_type;location;lat;lon;timestamp;pressure;altitude;pressure_sealevel;temperature;humidity
50226;BME280;36113;50.742;6.432;2024-02-21T00:00:21;99527.31;;;7.02;84.68
50226;BME280;36113;50.742;6.432;2024-02-21T00:02:47;99523.16;;;6.99;84.74
50226;BME280;36113;50.742;6.432;2024-02-21T00:05:12;99512.91;;;6.90;84.61
50226;BME280;36113;50.742;6.432;2024-02-21T00:07:37;99527.06;;;7.03;84.75
50226;BME280;36113;50.742;6.432;2024-02-21T00:10:03;99518.13;;;7.03;84.24
50226;BME280;36113;50.742;6.432;2024-02-21T00:12:28;99520.00;;;7.02;84.54
50226;BME280;36113;50.742;6.432;2024-02-21T00:14:53;99512.34;;;6.99;84.51
50226;BME280;36113;50.742;6.432;2024-02-21T00:17:19;99515.78;;;7.07;84.44
50226;BME280;36113;50.742;6.432;2024-02-21T00:19:44;99499.88;;;6.98;84.49
50226;BME280;36113;50.742;6.432;2024-02-21T00:22:09;99501.31;;;7.01;84.40
50226;BME280;36113;50.742;6.432;2024-02-21T00:24:35;99467.97;;;6.77;84.64
50226;BME280;36113;50.742;6.432;2024-02-21T00:27:00;99458.00;;;6.77;85.30
50226;BME280;36113;50.742;6.432;2024-02-21T00:29:25;99471.66;;;6.82;85.12
50226;BME280;36113;50.742;6.432;2024-02-21T00:31:51;99484.91;;;6.84;85.78
50226;BME280;36113;50.742;6.432;2024-02-21T00:34:16;99488.31;;;6.79;85.92
50226;BME280;36113;50.742;6.432;2024-02-21T00:36:41;99482.91;;;6.79;86.27
50226;BME280;36113;50.742;6.432;2024-02-21T00:39:06;99485.25;;;6.76;86.04
50226;BME280;36113;50.742;6.432;2024-02-21T00:41:32;99484.19;;;6.77;86.30
50226;BME280;36113;50.742;6.432;2024-02-21T00:43:58;99482.31;;;6.77;85.78
50226;BME280;36113;50.742;6.432;2024-02-21T00:46:23;99482.56;;;6.76;85.88
50226;BME280;36113;50.742;6.432;2024-02-21T00:48:48;99471.75;;;6.76;85.89
50226;BME280;36113;50.742;6.432;2024-02-21T00:51:16;99467.06;;;6.83;85.97
50226;BME280;36113;50.742;6.432;2024-02-21T00:53:42;99470.34;;;6.85;85.90
50226;BME280;36113;50.742;6.432;2024-02-21T00:56:07;99434.56;;;6.59;85.58
50226;BME280;36113;50.742;6.432;2024-02-21T00:58:33;99433.41;;;6.55;85.71
50226;BME280;36113;50.742;6.432;2024-02-21T01:00:58;99434.06;;;6.51;85.81
50226;BME280;36113;50.742;6.432;2024-02-21T01:03:23;99455.63;;;6.69;85.97
50226;BME280;36113;50.742;6.432;2024-02-21T01:05:49;99430.91;;;6.54;86.01
50226;BME280;36113;50.742;6.432;2024-02-21T01:08:14;99470.09;;;6.75;85.84
50226;BME280;36113;50.742;6.432;2024-02-21T01:10:39;99470.56;;;6.72;85.85
50226;BME280;36113;50.742;6.432;2024-02-21T01:13:05;99465.75;;;6.74;85.69
50226;BME280;36113;50.742;6.432;2024-02-21T01:15:30;99445.44;;;6.71;85.46
50226;BME280;36113;50.742;6.432;2024-02-21T01:17:56;99456.34;;;6.76;85.69
50226;BME280;36113;50.742;6.432;2024-02-21T01:20:21;99433.06;;;6.63;85.64
50226;BME280;36113;50.742;6.432;2024-02-21T01:22:46;99407.53;;;6.48;85.79
50226;BME280;36113;50.742;6.432;2024-02-21T01:25:12;99425.28;;;6.55;85.60
50226;BME280;36113;50.742;6.432;2024-02-21T01:27:37;99420.94;;;6.54;85.35
50226;BME280;36113;50.742;6.432;2024-02-21T01:30:03;99422.09;;;6.47;85.90
50226;BME280;36113;50.742;6.432;2024-02-21T01:32:28;99433.03;;;6.52;86.03
50226;BME280;36113;50.742;6.432;2024-02-21T01:34:54;99453.03;;;6.62;86.00
50226;BME280;36113;50.742;6.432;2024-02-21T01:37:19;99453.38;;;6.66;86.02
50226;BME280;36113;50.742;6.432;2024-02-21T01:39:44;99428.00;;;6.55;85.73
50226;BME280;36113;50.742;6.432;2024-02-21T01:42:09;99454.72;;;6.75;85.91
50226;BME280;36113;50.742;6.432;2024-02-21T01:44:35;99461.88;;;6.81;85.85
50226;BME280;36113;50.742;6.432;2024-02-21T01:47:01;99460.38;;;6.86;85.73
50226;BME280;36113;50.742;6.432;2024-02-21T01:49:27;99463.66;;;6.88;85.55
50226;BME280;36113;50.742;6.432;2024-02-21T01:51:53;99459.06;;;6.88;85.42
50226;BME280;36113;50.742;6.432;2024-02-21T01:54:19;99445.81;;;6.87;85.37
50226;BME280;36113;50.742;6.432;2024-02-21T01:56:46;99437.22;;;6.78;85.27
50226;BME280;36113;50.742;6.432;2024-02-21T01:59:13;99449.81;;;6.96;85.23
50226;BME280;36113;50.742;6.432;2024-02-21T02:01:39;99424.91;;;6.94;85.19
50226;BME280;36113;50.742;6.432;2024-02-21T02:04:05;99404.78;;;6.78;84.67
50226;BME280;36113;50.742;6.432;2024-02-21T02:06:31;99443.59;;;6.95;84.80
50226;BME280;36113;50.742;6.432;2024-02-21T02:08:56;99431.34;;;6.93;84.87
50226;BME280;36113;50.742;6.432;2024-02-21T02:11:22;99368.09;;;6.58;84.96
50226;BME280;36113;50.742;6.432;2024-02-21T02:13:47;99428.81;;;6.98;84.89
50226;BME280;36113;50.742;6.432;2024-02-21T02:16:12;99427.72;;;6.99;84.59
50226;BME280;36113;50.742;6.432;2024-02-21T02:18:38;99411.16;;;6.95;84.44
50226;BME280;36113;50.742;6.432;2024-02-21T02:21:05;99365.06;;;6.67;84.63
50226;BME280;36113;50.742;6.432;2024-02-21T02:23:34;99403.16;;;6.89;84.64
50226;BME280;36113;50.742;6.432;2024-02-21T02:26:00;99394.22;;;6.88;84.25
50226;BME280;36113;50.742;6.432;2024-02-21T02:28:28;99399.19;;;6.91;84.25
50226;BME280;36113;50.742;6.432;2024-02-21T02:30:53;99381.88;;;6.80;84.04
50226;BME280;36113;50.742;6.432;2024-02-21T02:33:19;99362.84;;;6.75;83.83
50226;BME280;36113;50.742;6.432;2024-02-21T02:35:44;99365.31;;;6.77;83.87
50226;BME280;36113;50.742;6.432;2024-02-21T02:38:10;99401.88;;;6.91;84.30
50226;BME280;36113;50.742;6.432;2024-02-21T02:40:38;99385.06;;;6.89;84.12
50226;BME280;36113;50.742;6.432;2024-02-21T02:43:03;99368.00;;;6.77;84.32
50226;BME280;36113;50.742;6.432;2024-02-21T02:45:29;99397.19;;;6.98;84.14
50226;BME280;36113;50.742;6.432;2024-02-21T02:47:55;99364.16;;;6.84;83.82
50226;BME280;36113;50.742;6.432;2024-02-21T02:50:22;99375.31;;;7.00;83.67
50226;BME280;36113;50.742;6.432;2024-02-21T02:52:47;99363.44;;;6.89;83.48
50226;BME280;36113;50.742;6.432;2024-02-21T02:55:12;99327.59;;;6.70;83.52
50226;BME280;36113;50.742;6.432;2024-02-21T02:57:38;99356.63;;;6.87;83.59
50226;BME280;36113;50.742;6.432;2024-02-21T03:00:04;99364.50;;;6.88;83.66
50226;BME280;36113;50.742;6.432;2024-02-21T03:02:31;99366.97;;;6.78;83.91
50226;BME280;36113;50.742;6.432;2024-02-21T03:04:57;99337.69;;;6.63;84.09
50226;BME280;36113;50.742;6.432;2024-02-21T03:07:23;99348.75;;;6.73;83.58
50226;BME280;36113;50.742;6.432;2024-02-21T03:09:49;99356.97;;;6.78;83.80
50226;BME280;36113;50.742;6.432;2024-02-21T03:12:15;99288.91;;;6.46;83.52
50226;BME280;36113;50.742;6.432;2024-02-21T03:14:44;99324.06;;;6.70;83.65
50226;BME280;36113;50.742;6.432;2024-02-21T03:17:09;99281.41;;;6.48;83.92
50226;BME280;36113;50.742;6.432;2024-02-21T03:19:35;99313.16;;;6.65;83.89
50226;BME280;36113;50.742;6.432;2024-02-21T03:22:00;99301.88;;;6.56;84.02
50226;BME280;36113;50.742;6.432;2024-02-21T03:24:25;99263.78;;;6.34;84.00
50226;BME280;36113;50.742;6.432;2024-02-21T03:26:51;99327.69;;;6.63;83.86
50226;BME280;36113;50.742;6.432;2024-02-21T03:29:16;99321.47;;;6.51;83.84
50226;BME280;36113;50.742;6.432;2024-02-21T03:31:42;99318.78;;;6.51;84.27
50226;BME280;36113;50.742;6.432;2024-02-21T03:34:08;99289.38;;;6.31;84.70
50226;BME280;36113;50.742;6.432;2024-02-21T03:36:33;99317.09;;;6.50;84.55
50226;BME280;36113;50.742;6.432;2024-02-21T03:38:59;99316.41;;;6.55;84.58
50226;BME280;36113;50.742;6.432;2024-02-21T03:41:25;99296.47;;;6.56;84.42
50226;BME280;36113;50.742;6.432;2024-02-21T03:43:50;99274.13;;;6.37;84.13
50226;BME280;36113;50.742;6.432;2024-02-21T03:46:15;99278.69;;;6.36;84.69
50226;BME280;36113;50.742;6.432;2024-02-21T03:48:41;99311.75;;;6.62;84.40
50226;BME280;36113;50.742;6.432;2024-02-21T03:51:06;99322.78;;;6.60;84.62
50226;BME280;36113;50.742;6.432;2024-02-21T03:53:32;99316.88;;;6.63;84.37
50226;BME280;36113;50.742;6.432;2024-02-21T03:55:57;99306.56;;;6.60;84.33
50226;BME280;36113;50.742;6.432;2024-02-21T03:58:27;99307.25;;;6.68;84.58
50226;BME280;36113;50.742;6.432;2024-02-21T04:00:53;99280.47;;;6.54;84.39
50226;BME280;36113;50.742;6.432;2024-02-21T04:03:18;99307.84;;;6.70;84.35
50226;BME280;36113;50.742;6.432;2024-02-21T04:05:43;99257.78;;;6.32;84.62
50226;BME280;36113;50.742;6.432;2024-02-21T04:08:09;99300.34;;;6.60;84.52
50226;BME280;36113;50.742;6.432;2024-02-21T04:10:34;99302.94;;;6.67;84.40
50226;BME280;36113;50.742;6.432;2024-02-21T04:12:59;99306.44;;;6.67;84.60
50226;BME280;36113;50.742;6.432;2024-02-21T04:15:24;99269.41;;;6.44;84.76
50226;BME280;36113;50.742;6.432;2024-02-21T04:17:50;99296.09;;;6.64;85.01
50226;BME280;36113;50.742;6.432;2024-02-21T04:20:16;99294.84;;;6.67;84.86
50226;BME280;36113;50.742;6.432;2024-02-21T04:22:44;99293.06;;;6.72;84.36
50226;BME280;36113;50.742;6.432;2024-02-21T04:25:10;99281.44;;;6.72;84.24
50226;BME280;36113;50.742;6.432;2024-02-21T04:27:36;99283.44;;;6.76;83.94
50226;BME280;36113;50.742;6.432;2024-02-21T04:30:02;99255.47;;;6.59;84.11
50226;BME280;36113;50.742;6.432;2024-02-21T04:32:28;99290.47;;;6.77;84.10
50226;BME280;36113;50.742;6.432;2024-02-21T04:34:53;99280.25;;;6.79;84.06
50226;BME280;36113;50.742;6.432;2024-02-21T04:37:18;99274.50;;;6.88;83.54
50226;BME280;36113;50.742;6.432;2024-02-21T04:39:45;99279.09;;;6.87;83.26
50226;BME280;36113;50.742;6.432;2024-02-21T04:42:10;99273.56;;;6.82;83.18
50226;BME280;36113;50.742;6.432;2024-02-21T04:44:35;99242.66;;;6.66;83.17
50226;BME280;36113;50.742;6.432;2024-02-21T04:47:02;99274.13;;;6.84;82.90
50226;BME280;36113;50.742;6.432;2024-02-21T04:49:28;99278.25;;;6.87;83.25
50226;BME280;36113;50.742;6.432;2024-02-21T04:51:54;99275.66;;;6.92;83.42
50226;BME280;36113;50.742;6.432;2024-02-21T04:54:19;99271.56;;;6.89;83.00
50226;BME280;36113;50.742;6.432;2024-02-21T04:56:44;99238.78;;;6.74;82.55
50226;BME280;36113;50.742;6.432;2024-02-21T04:59:10;99281.19;;;6.97;83.03
50226;BME280;36113;50.742;6.432;2024-02-21T05:01:35;99275.31;;;7.00;82.67
50226;BME280;36113;50.742;6.432;2024-02-21T05:04:00;99262.50;;;6.95;82.79
50226;BME280;36113;50.742;6.432;2024-02-21T05:06:25;99251.56;;;6.90;82.38
50226;BME280;36113;50.742;6.432;2024-02-21T05:08:51;99233.72;;;6.77;82.45
50226;BME280;36113;50.742;6.432;2024-02-21T05:11:16;99262.38;;;7.02;82.44
50226;BME280;36113;50.742;6.432;2024-02-21T05:13:42;99267.66;;;6.97;82.71
50226;BME280;36113;50.742;6.432;2024-02-21T05:16:07;99258.75;;;6.96;82.71
50226;BME280;36113;50.742;6.432;2024-02-21T05:18:33;99253.91;;;6.98;82.56
50226;BME280;36113;50.742;6.432;2024-02-21T05:20:59;99240.91;;;6.95;82.40
50226;BME280;36113;50.742;6.432;2024-02-21T05:23:24;99237.59;;;6.93;82.92
50226;BME280;36113;50.742;6.432;2024-02-21T05:25:49;99247.44;;;6.99;82.98
50226;BME280;36113;50.742;6.432;2024-02-21T05:28:15;99250.84;;;6.95;83.09
50226;BME280;36113;50.742;6.432;2024-02-21T05:30:40;99225.03;;;6.87;83.24
50226;BME280;36113;50.742;6.432;2024-02-21T05:33:08;99244.16;;;6.97;83.31
50226;BME280;36113;50.742;6.432;2024-02-21T05:35:34;99237.34;;;6.95;83.56
50226;BME280;36113;50.742;6.432;2024-02-21T05:38:00;99234.91;;;6.93;84.05
50226;BME280;36113;50.742;6.432;2024-02-21T05:40:25;99244.88;;;6.93;84.04
50226;BME280;36113;50.742;6.432;2024-02-21T05:42:51;99223.16;;;6.76;84.18
50226;BME280;36113;50.742;6.432;2024-02-21T05:45:17;99239.72;;;6.91;84.26
50226;BME280;36113;50.742;6.432;2024-02-21T05:47:42;99231.13;;;6.94;83.88
50226;BME280;36113;50.742;6.432;2024-02-21T05:50:09;99239.34;;;6.99;84.22
50226;BME280;36113;50.742;6.432;2024-02-21T05:52:34;99232.06;;;7.00;83.79
50226;BME280;36113;50.742;6.432;2024-02-21T05:54:59;99233.59;;;6.96;84.09
50226;BME280;36113;50.742;6.432;2024-02-21T05:57:25;99232.66;;;7.02;84.18
50226;BME280;36113;50.742;6.432;2024-02-21T05:59:50;99167.13;;;6.59;84.09
50226;BME280;36113;50.742;6.432;2024-02-21T06:02:15;99231.81;;;7.01;84.31
50226;BME280;36113;50.742;6.432;2024-02-21T06:04:41;99222.06;;;7.00;84.18
50226;BME280;36113;50.742;6.432;2024-02-21T06:07:07;99217.25;;;7.02;84.08
50226;BME280;36113;50.742;6.432;2024-02-21T06:09:33;99185.81;;;6.84;84.22
50226;BME280;36113;50.742;6.432;2024-02-21T06:11:58;99210.19;;;7.01;84.25
50226;BME280;36113;50.742;6.432;2024-02-21T06:14:24;99186.63;;;6.85;84.48
50226;BME280;36113;50.742;6.432;2024-02-21T06:16:49;99206.81;;;6.94;84.12
50226;BME280;36113;50.742;6.432;2024-02-21T06:19:15;99182.75;;;6.81;84.04
50226;BME280;36113;50.742;6.432;2024-02-21T06:21:40;99145.31;;;6.61;84.24
50226;BME280;36113;50.742;6.432;2024-02-21T06:24:05;99220.41;;;6.99;84.38
50226;BME280;36113;50.742;6.432;2024-02-21T06:26:31;99221.84;;;7.02;84.19
50226;BME280;36113;50.742;6.432;2024-02-21T06:28:56;99214.41;;;6.97;84.44
50226;BME280;36113;50.742;6.432;2024-02-21T06:31:22;99202.94;;;6.90;84.62
50226;BME280;36113;50.742;6.432;2024-02-21T06:33:47;99221.00;;;7.01;84.63
50226;BME280;36113;50.742;6.432;2024-02-21T06:36:12;99152.00;;;6.58;84.67
50226;BME280;36113;50.742;6.432;2024-02-21T06:38:38;99177.94;;;6.71;84.54
50226;BME280;36113;50.742;6.432;2024-02-21T06:41:03;99176.66;;;6.74;84.98
50226;BME280;36113;50.742;6.432;2024-02-21T06:43:29;99201.88;;;6.91;84.99
50226;BME280;36113;50.742;6.432;2024-02-21T06:45:55;99192.03;;;6.85;84.70
50226;BME280;36113;50.742;6.432;2024-02-21T06:48:22;99202.47;;;6.93;84.88
50226;BME280;36113;50.742;6.432;2024-02-21T06:50:47;99177.09;;;6.71;84.92
50226;BME280;36113;50.742;6.432;2024-02-21T06:53:13;99162.47;;;6.67;84.87
50226;BME280;36113;50.742;6.432;2024-02-21T06:55:38;99202.69;;;6.92;84.86
50226;BME280;36113;50.742;6.432;2024-02-21T06:58:04;99179.44;;;6.79;85.26
50226;BME280;36113;50.742;6.432;2024-02-21T07:00:29;99193.19;;;6.89;84.99
50226;BME280;36113;50.742;6.432;2024-02-21T07:02:55;99182.63;;;6.88;85.41
50226;BME280;36113;50.742;6.432;2024-02-21T07:05:20;99155.03;;;6.74;84.67
50226;BME280;36113;50.742;6.432;2024-02-21T07:07:46;99187.19;;;6.87;84.62
50226;BME280;36113;50.742;6.432;2024-02-21T07:10:11;99175.34;;;6.76;84.15
50226;BME280;36113;50.742;6.432;2024-02-21T07:12:36;99173.13;;;6.73;84.38
50226;BME280;36113;50.742;6.432;2024-02-21T07:15:04;99170.66;;;6.72;84.32
50226;BME280;36113;50.742;6.432;2024-02-21T07:17:30;99186.03;;;6.83;84.39
50226;BME280;36113;50.742;6.432;2024-02-21T07:19:55;99172.41;;;6.78;84.42
50226;BME280;36113;50.742;6.432;2024-02-21T07:22:22;99166.78;;;6.68;84.31
50226;BME280;36113;50.742;6.432;2024-02-21T07:24:47;99193.56;;;6.81;84.24
50226;BME280;36113;50.742;6.432;2024-02-21T07:27:14;99180.84;;;6.81;83.49
50226;BME280;36113;50.742;6.432;2024-02-21T07:29:40;99192.59;;;6.87;83.16
50226;BME280;36113;50.742;6.432;2024-02-21T07:32:05;99199.53;;;6.83;83.05
50226;BME280;36113;50.742;6.432;2024-02-21T07:34:30;99178.88;;;6.77;82.51
50226;BME280;36113;50.742;6.432;2024-02-21T07:36:57;99185.09;;;6.77;82.69
50226;BME280;36113;50.742;6.432;2024-02-21T07:39:22;99152.38;;;6.62;82.55
50226;BME280;36113;50.742;6.432;2024-02-21T07:41:47;99197.41;;;6.85;81.92
50226;BME280;36113;50.742;6.432;2024-02-21T07:44:14;99148.22;;;6.59;82.12
50226;BME280;36113;50.742;6.432;2024-02-21T07:46:40;99186.13;;;6.88;82.03
50226;BME280;36113;50.742;6.432;2024-02-21T07:49:05;99186.00;;;6.95;82.23
50226;BME280;36113;50.742;6.432;2024-02-21T07:51:30;99184.69;;;6.97;81.34
50226;BME280;36113;50.742;6.432;2024-02-21T07:53:56;99173.19;;;7.02;81.35
50226;BME280;36113;50.742;6.432;2024-02-21T07:56:21;99132.34;;;6.87;80.73
50226;BME280;36113;50.742;6.432;2024-02-21T07:58:46;99142.06;;;6.88;80.05
50226;BME280;36113;50.742;6.432;2024-02-21T08:01:18;99153.44;;;7.01;79.98
50226;BME280;36113;50.742;6.432;2024-02-21T08:03:43;99134.31;;;6.91;79.52
50226;BME280;36113;50.742;6.432;2024-02-21T08:06:12;99127.94;;;6.97;78.43
50226;BME280;36113;50.742;6.432;2024-02-21T08:08:37;99162.81;;;7.11;78.12
50226;BME280;36113;50.742;6.432;2024-02-21T08:11:02;99140.84;;;7.07;77.24
50226;BME280;36113;50.742;6.432;2024-02-21T08:13:28;99153.72;;;7.17;76.88
50226;BME280;36113;50.742;6.432;2024-02-21T08:15:54;99137.91;;;7.09;76.14
50226;BME280;36113;50.742;6.432;2024-02-21T08:18:19;99141.88;;;7.18;76.18
50226;BME280;36113;50.742;6.432;2024-02-21T08:20:45;99148.09;;;7.18;76.34
50226;BME280;36113;50.742;6.432;2024-02-21T08:23:10;99134.34;;;7.20;75.89
50226;BME280;36113;50.742;6.432;2024-02-21T08:25:35;99066.56;;;6.81;75.58
50226;BME280;36113;50.742;6.432;2024-02-21T08:28:01;99101.47;;;7.11;75.41
50226;BME280;36113;50.742;6.432;2024-02-21T08:30:26;99103.28;;;7.22;75.28
50226;BME280;36113;50.742;6.432;2024-02-21T08:32:51;99069.16;;;7.04;75.49
50226;BME280;36113;50.742;6.432;2024-02-21T08:35:19;99105.78;;;7.41;75.35
50226;BME280;36113;50.742;6.432;2024-02-21T08:37:44;99057.41;;;7.11;74.88
50226;BME280;36113;50.742;6.432;2024-02-21T08:40:13;99090.69;;;7.45;74.74
50226;BME280;36113;50.742;6.432;2024-02-21T08:42:39;99073.75;;;7.50;74.22
50226;BME280;36113;50.742;6.432;2024-02-21T08:45:04;99077.59;;;7.54;74.03
50226;BME280;36113;50.742;6.432;2024-02-21T08:47:30;99011.94;;;7.24;73.49
50226;BME280;36113;50.742;6.432;2024-02-21T08:49:55;99048.66;;;7.54;73.35
50226;BME280;36113;50.742;6.432;2024-02-21T08:52:20;99042.25;;;7.43;73.42
50226;BME280;36113;50.742;6.432;2024-02-21T08:54:46;99030.53;;;7.38;73.25
50226;BME280;36113;50.742;6.432;2024-02-21T08:57:11;99036.94;;;7.49;73.22
50226;BME280;36113;50.742;6.432;2024-02-21T08:59:39;99021.94;;;7.58;72.89
50226;BME280;36113;50.742;6.432;2024-02-21T09:02:04;99043.66;;;7.80;72.54
50226;BME280;36113;50.742;6.432;2024-02-21T09:04:29;99038.06;;;7.86;72.97
50226;BME280;36113;50.742;6.432;2024-02-21T09:06:56;99020.03;;;7.75;72.79
50226;BME280;36113;50.742;6.432;2024-02-21T09:09:21;99025.13;;;7.88;72.48
50226;BME280;36113;50.742;6.432;2024-02-21T09:11:46;99018.78;;;7.83;72.62
50226;BME280;36113;50.742;6.432;2024-02-21T09:14:11;99015.59;;;7.86;72.58
50226;BME280;36113;50.742;6.432;2024-02-21T09:16:37;99017.97;;;7.82;72.43
50226;BME280;36113;50.742;6.432;2024-02-21T09:19:02;99018.69;;;7.95;72.08
50226;BME280;36113;50.742;6.432;2024-02-21T09:21:27;99006.22;;;7.94;71.98
50226;BME280;36113;50.742;6.432;2024-02-21T09:23:53;99001.72;;;7.99;71.94
50226;BME280;36113;50.742;6.432;2024-02-21T09:26:18;98989.63;;;8.07;72.28
50226;BME280;36113;50.742;6.432;2024-02-21T09:28:44;98971.81;;;8.11;71.96
50226;BME280;36113;50.742;6.432;2024-02-21T09:31:10;98972.69;;;8.17;71.63
50226;BME280;36113;50.742;6.432;2024-02-21T09:33:35;98965.69;;;7.99;70.82
50226;BME280;36113;50.742;6.432;2024-02-21T09:36:02;98935.06;;;7.76;71.38
50226;BME280;36113;50.742;6.432;2024-02-21T09:38:27;98955.03;;;7.92;71.73
50226;BME280;36113;50.742;6.432;2024-02-21T09:41:19;98963.53;;;8.01;71.38
50226;BME280;36113;50.742;6.432;2024-02-21T09:43:50;98965.31;;;8.12;71.53
50226;BME280;36113;50.742;6.432;2024-02-21T09:46:19;98952.47;;;8.24;71.44
50226;BME280;36113;50.742;6.432;2024-02-21T09:51:43;98952.91;;;8.16;71.12
50226;BME280;36113;50.742;6.432;2024-02-21T09:54:10;98963.31;;;8.24;71.22
50226;BME280;36113;50.742;6.432;2024-02-21T09:56:35;98934.47;;;8.13;71.26
50226;BME280;36113;50.742;6.432;2024-02-21T09:59:01;98960.28;;;8.43;70.53
50226;BME280;36113;50.742;6.432;2024-02-21T10:01:30;98961.22;;;8.54;70.51
50226;BME280;36113;50.742;6.432;2024-02-21T10:03:56;98960.38;;;8.48;70.04
50226;BME280;36113;50.742;6.432;2024-02-21T10:06:22;98957.38;;;8.49;70.52
50226;BME280;36113;50.742;6.432;2024-02-21T10:08:54;98970.25;;;8.59;70.39
50226;BME280;36113;50.742;6.432;2024-02-21T10:11:25;98960.50;;;8.63;70.29
50226;BME280;36113;50.742;6.432;2024-02-21T10:13:51;98937.97;;;8.58;70.02
50226;BME280;36113;50.742;6.432;2024-02-21T10:16:27;98974.44;;;8.72;70.12
50226;BME280;36113;50.742;6.432;2024-02-21T10:18:54;98960.63;;;8.74;69.70
50226;BME280;36113;50.742;6.432;2024-02-21T10:21:19;98943.03;;;8.76;69.78
50226;BME280;36113;50.742;6.432;2024-02-21T10:23:48;98939.81;;;8.79;70.01
50226;BME280;36113;50.742;6.432;2024-02-21T10:26:15;98891.00;;;8.47;69.16
50226;BME280;36113;50.742;6.432;2024-02-21T10:28:41;98932.41;;;8.69;69.58
50226;BME280;36113;50.742;6.432;2024-02-21T10:31:26;98934.09;;;8.76;69.70
50226;BME280;36113;50.742;6.432;2024-02-21T10:33:59;98929.78;;;8.80;69.68
50226;BME280;36113;50.742;6.432;2024-02-21T10:36:28;98914.19;;;8.65;69.65
50226;BME280;36113;50.742;6.432;2024-02-21T10:38:54;98920.53;;;8.76;69.90
50226;BME280;36113;50.742;6.432;2024-02-21T10:41:20;98904.53;;;8.74;69.49
50226;BME280;36113;50.742;6.432;2024-02-21T10:43:53;98909.84;;;8.91;69.67
50226;BME280;36113;50.742;6.432;2024-02-21T10:46:21;98895.97;;;8.87;69.27
50226;BME280;36113;50.742;6.432;2024-02-21T10:48:47;98883.97;;;8.78;69.43
50226;BME280;36113;50.742;6.432;2024-02-21T10:51:17;98884.09;;;8.94;70.09
50226;BME280;36113;50.742;6.432;2024-02-21T10:56:30;98861.91;;;8.97;69.62
50226;BME280;36113;50.742;6.432;2024-02-21T10:59:00;98830.09;;;8.87;69.79
50226;BME280;36113;50.742;6.432;2024-02-21T11:01:26;98842.69;;;9.03;69.08
50226;BME280;36113;50.742;6.432;2024-02-21T11:03:55;98813.56;;;8.83;68.74
50226;BME280;36113;50.742;6.432;2024-02-21T11:06:22;98829.97;;;9.04;69.23
50226;BME280;36113;50.742;6.432;2024-02-21T11:09:05;98783.44;;;8.85;69.74
50226;BME280;36113;50.742;6.432;2024-02-21T11:11:43;98825.22;;;9.31;68.98
50226;BME280;36113;50.742;6.432;2024-02-21T11:14:19;98791.25;;;9.19;68.89
50226;BME280;36113;50.742;6.432;2024-02-21T11:16:45;98800.88;;;9.47;68.20
50226;BME280;36113;50.742;6.432;2024-02-21T11:19:21;98806.13;;;9.64;68.32
50226;BME280;36113;50.742;6.432;2024-02-21T11:21:47;98789.00;;;9.58;67.48
50226;BME280;36113;50.742;6.432;2024-02-21T11:24:13;98779.75;;;9.49;67.36
50226;BME280;36113;50.742;6.432;2024-02-21T11:26:40;98723.50;;;9.29;68.14
50226;BME280;36113;50.742;6.432;2024-02-21T11:29:08;98767.88;;;9.70;67.71
50226;BME280;36113;50.742;6.432;2024-02-21T11:31:40;98731.50;;;9.61;67.45
50226;BME280;36113;50.742;6.432;2024-02-21T11:34:10;98723.66;;;9.70;66.96
50226;BME280;36113;50.742;6.432;2024-02-21T11:36:36;98727.97;;;9.66;66.87
50226;BME280;36113;50.742;6.432;2024-02-21T11:39:04;98707.31;;;9.60;67.61
50226;BME280;36113;50.742;6.432;2024-02-21T11:41:31;98710.00;;;9.49;67.30
50226;BME280;36113;50.742;6.432;2024-02-21T11:43:56;98701.03;;;9.44;67.19
50226;BME280;36113;50.742;6.432;2024-02-21T11:46:21;98688.78;;;9.36;67.60
50226;BME280;36113;50.742;6.432;2024-02-21T11:48:48;98686.13;;;9.41;67.59
50226;BME280;36113;50.742;6.432;2024-02-21T11:51:22;98666.78;;;9.27;67.93
50226;BME280;36113;50.742;6.432;2024-02-21T11:53:50;98677.94;;;9.36;67.68
50226;BME280;36113;50.742;6.432;2024-02-21T11:56:16;98651.88;;;9.25;68.03
50226;BME280;36113;50.742;6.432;2024-02-21T11:58:41;98670.91;;;9.30;67.30
50226;BME280;36113;50.742;6.432;2024-02-21T12:01:08;98661.09;;;9.24;67.41
50226;BME280;36113;50.742;6.432;2024-02-21T12:03:33;98652.69;;;9.25;67.95
50226;BME280;36113;50.742;6.432;2024-02-21T12:06:01;98562.53;;;8.82;68.10
50226;BME280;36113;50.742;6.432;2024-02-21T12:08:28;98634.00;;;9.34;67.91
50226;BME280;36113;50.742;6.432;2024-02-21T12:11:19;98626.44;;;9.41;67.76
50226;BME280;36113;50.742;6.432;2024-02-21T12:13:44;98598.75;;;9.49;68.25
50226;BME280;36113;50.742;6.432;2024-02-21T12:16:10;98578.13;;;9.53;67.71
50226;BME280;36113;50.742;6.432;2024-02-21T12:18:36;98557.53;;;9.58;67.95
50226;BME280;36113;50.742;6.432;2024-02-21T12:21:01;98533.09;;;9.52;67.03
50226;BME280;36113;50.742;6.432;2024-02-21T12:23:27;98536.91;;;9.41;66.90
50226;BME280;36113;50.742;6.432;2024-02-21T12:25:52;98515.19;;;9.46;67.49
50226;BME280;36113;50.742;6.432;2024-02-21T12:28:19;98511.91;;;9.49;66.84
50226;BME280;36113;50.742;6.432;2024-02-21T12:30:44;98501.63;;;9.46;66.64
50226;BME280;36113;50.742;6.432;2024-02-21T12:33:10;98489.97;;;9.46;65.94
50226;BME280;36113;50.742;6.432;2024-02-21T12:35:35;98483.72;;;9.50;66.07
50226;BME280;36113;50.742;6.432;2024-02-21T12:38:00;98436.78;;;9.40;66.28
50226;BME280;36113;50.742;6.432;2024-02-21T12:40:26;98424.56;;;9.52;64.92
50226;BME280;36113;50.742;6.432;2024-02-21T12:42:58;98420.50;;;9.45;64.40
50226;BME280;36113;50.742;6.432;2024-02-21T12:45:23;98436.50;;;9.57;65.18
50226;BME280;36113;50.742;6.432;2024-02-21T12:47:48;98456.25;;;9.78;63.31
50226;BME280;36113;50.742;6.432;2024-02-21T12:50:14;98487.44;;;9.95;63.07
50226;BME280;36113;50.742;6.432;2024-02-21T12:52:40;98500.66;;;10.28;62.76
50226;BME280;36113;50.742;6.432;2024-02-21T12:55:06;98496.56;;;10.46;63.12
50226;BME280;36113;50.742;6.432;2024-02-21T12:57:31;98499.97;;;10.67;61.95
50226;BME280;36113;50.742;6.432;2024-02-21T12:59:56;98459.03;;;10.43;61.67
50226;BME280;36113;50.742;6.432;2024-02-21T13:02:22;98470.34;;;10.70;61.20
50226;BME280;36113;50.742;6.432;2024-02-21T13:04:47;98503.09;;;10.94;61.57
50226;BME280;36113;50.742;6.432;2024-02-21T13:07:12;98512.81;;;11.06;61.44
50226;BME280;36113;50.742;6.432;2024-02-21T13:09:38;98510.59;;;11.13;61.52